sensor_id;sensor_type;location;lat;lon;timestamp;P1;durP1;ratioP1;P2;durP2;ratioP2
54171;SDS011;40076;52.354;4.970;2022-11-27T00:01:34;18.15;;;5.45;;
54171;SDS011;40076;52.354;4.970;2022-11-27T00:04:00;18.38;;;5.55;;
54171;SDS011;40076;52.354;4.970;2022-11-27T00:06:26;19.15;;;6.00;;
54171;SDS011;40076;52.354;4.970;2022-11-27T00:08:54;22.05;;;6.30;;
54171;SDS011;40076;52.354;4.970;2022-11-27T00:11:21;21.63;;;6.45;;
54171;SDS011;40076;52.354;4.970;2022-11-27T00:13:48;19.75;;;6.10;;
54171;SDS011;40076;52.354;4.970;2022-11-27T00:16:14;21.42;;;6.25;;
54171;SDS011;40076;52.354;4.970;2022-11-27T00:18:40;23.92;;;6.28;;
54171;SDS011;40076;52.354;4.970;2022-11-27T00:21:11;14.35;;;5.93;;
54171;SDS011;40076;52.354;4.970;2022-11-27T00:23:38;19.50;;;6.13;;
54171;SDS011;40076;52.354;4.970;2022-11-27T00:26:04;13.18;;;5.40;;
54171;SDS011;40076;52.354;4.970;2022-11-27T00:28:31;17.95;;;5.63;;
54171;SDS011;40076;52.354;4.970;2022-11-27T00:30:57;21.98;;;6.43;;
54171;SDS011;40076;52.354;4.970;2022-11-27T00:33:24;15.18;;;5.63;;
54171;SDS011;40076;52.354;4.970;2022-11-27T00:35:49;15.70;;;5.70;;
54171;SDS011;40076;52.354;4.970;2022-11-27T00:38:15;18.42;;;5.57;;
54171;SDS011;40076;52.354;4.970;2022-11-27T00:40:40;17.17;;;6.45;;
54171;SDS011;40076;52.354;4.970;2022-11-27T00:43:05;16.90;;;5.38;;
54171;SDS011;40076;52.354;4.970;2022-11-27T00:45:30;26.50;;;6.65;;
54171;SDS011;40076;52.354;4.970;2022-11-27T00:47:56;17.90;;;5.35;;
54171;SDS011;40076;52.354;4.970;2022-11-27T00:50:21;18.23;;;5.40;;
54171;SDS011;40076;52.354;4.970;2022-11-27T00:52:46;22.23;;;5.50;;
54171;SDS011;40076;52.354;4.970;2022-11-27T00:55:12;21.42;;;5.72;;
54171;SDS011;40076;52.354;4.970;2022-11-27T00:57:37;15.15;;;5.25;;
54171;SDS011;40076;52.354;4.970;2022-11-27T01:00:03;12.02;;;4.88;;
54171;SDS011;40076;52.354;4.970;2022-11-27T01:02:30;20.02;;;5.97;;
54171;SDS011;40076;52.354;4.970;2022-11-27T01:04:55;13.77;;;5.45;;
54171;SDS011;40076;52.354;4.970;2022-11-27T01:07:20;15.38;;;5.50;;
54171;SDS011;40076;52.354;4.970;2022-11-27T01:09:46;17.85;;;5.80;;
54171;SDS011;40076;52.354;4.970;2022-11-27T01:12:11;16.90;;;5.50;;
54171;SDS011;40076;52.354;4.970;2022-11-27T01:14:36;21.23;;;5.78;;
54171;SDS011;40076;52.354;4.970;2022-11-27T01:17:02;14.25;;;5.05;;
54171;SDS011;40076;52.354;4.970;2022-11-27T01:19:27;18.50;;;5.55;;
54171;SDS011;40076;52.354;4.970;2022-11-27T01:21:53;12.70;;;5.07;;
54171;SDS011;40076;52.354;4.970;2022-11-27T01:24:18;20.00;;;5.45;;
54171;SDS011;40076;52.354;4.970;2022-11-27T01:26:43;15.02;;;5.05;;
54171;SDS011;40076;52.354;4.970;2022-11-27T01:29:09;16.90;;;4.70;;
54171;SDS011;40076;52.354;4.970;2022-11-27T01:31:36;17.60;;;5.07;;
54171;SDS011;40076;52.354;4.970;2022-11-27T01:34:05;13.35;;;4.78;;
54171;SDS011;40076;52.354;4.970;2022-11-27T01:36:34;15.52;;;4.70;;
54171;SDS011;40076;52.354;4.970;2022-11-27T01:38:59;20.33;;;5.10;;
54171;SDS011;40076;52.354;4.970;2022-11-27T01:41:29;18.95;;;4.60;;
54171;SDS011;40076;52.354;4.970;2022-11-27T01:43:57;15.98;;;4.57;;
54171;SDS011;40076;52.354;4.970;2022-11-27T01:46:27;20.65;;;5.82;;
54171;SDS011;40076;52.354;4.970;2022-11-27T01:51:36;18.25;;;4.78;;
54171;SDS011;40076;52.354;4.970;2022-11-27T01:54:05;18.27;;;5.03;;
54171;SDS011;40076;52.354;4.970;2022-11-27T01:56:33;15.52;;;4.70;;
54171;SDS011;40076;52.354;4.970;2022-11-27T01:58:59;15.27;;;4.78;;
54171;SDS011;40076;52.354;4.970;2022-11-27T02:01:26;13.40;;;4.93;;
54171;SDS011;40076;52.354;4.970;2022-11-27T02:03:52;13.70;;;4.20;;
54171;SDS011;40076;52.354;4.970;2022-11-27T02:06:21;14.30;;;4.55;;
54171;SDS011;40076;52.354;4.970;2022-11-27T02:08:46;14.15;;;5.00;;
54171;SDS011;40076;52.354;4.970;2022-11-27T02:11:14;15.05;;;4.57;;
54171;SDS011;40076;52.354;4.970;2022-11-27T02:13:50;16.90;;;5.35;;
54171;SDS011;40076;52.354;4.970;2022-11-27T02:16:20;15.48;;;4.95;;
54171;SDS011;40076;52.354;4.970;2022-11-27T02:19:06;18.05;;;4.65;;
54171;SDS011;40076;52.354;4.970;2022-11-27T02:30:06;15.50;;;4.53;;
54171;SDS011;40076;52.354;4.970;2022-11-27T02:32:38;13.93;;;4.20;;
54171;SDS011;40076;52.354;4.970;2022-11-27T02:35:22;10.60;;;3.78;;
54171;SDS011;40076;52.354;4.970;2022-11-27T02:37:58;13.48;;;4.05;;
54171;SDS011;40076;52.354;4.970;2022-11-27T02:40:29;12.95;;;3.70;;
54171;SDS011;40076;52.354;4.970;2022-11-27T02:43:09;10.38;;;3.08;;
54171;SDS011;40076;52.354;4.970;2022-11-27T02:45:41;15.77;;;4.60;;
54171;SDS011;40076;52.354;4.970;2022-11-27T02:48:09;11.63;;;3.92;;
54171;SDS011;40076;52.354;4.970;2022-11-27T02:50:37;14.00;;;4.28;;
54171;SDS011;40076;52.354;4.970;2022-11-27T02:53:07;14.07;;;4.70;;
54171;SDS011;40076;52.354;4.970;2022-11-27T02:55:38;12.25;;;4.45;;
54171;SDS011;40076;52.354;4.970;2022-11-27T02:58:07;15.38;;;4.40;;
54171;SDS011;40076;52.354;4.970;2022-11-27T03:00:36;12.90;;;3.88;;
54171;SDS011;40076;52.354;4.970;2022-11-27T03:03:04;13.82;;;4.38;;
54171;SDS011;40076;52.354;4.970;2022-11-27T03:05:34;17.23;;;4.38;;
54171;SDS011;40076;52.354;4.970;2022-11-27T03:08:17;14.50;;;3.83;;
54171;SDS011;40076;52.354;4.970;2022-11-27T03:10:51;10.45;;;4.07;;
54171;SDS011;40076;52.354;4.970;2022-11-27T03:13:24;15.15;;;4.78;;
54171;SDS011;40076;52.354;4.970;2022-11-27T03:18:41;13.93;;;3.92;;
54171;SDS011;40076;52.354;4.970;2022-11-27T03:21:20;12.93;;;3.78;;
54171;SDS011;40076;52.354;4.970;2022-11-27T03:23:52;11.27;;;3.70;;
54171;SDS011;40076;52.354;4.970;2022-11-27T03:26:18;16.17;;;4.10;;
54171;SDS011;40076;52.354;4.970;2022-11-27T03:28:43;17.83;;;4.85;;
54171;SDS011;40076;52.354;4.970;2022-11-27T03:31:11;16.00;;;4.55;;
54171;SDS011;40076;52.354;4.970;2022-11-27T03:33:36;11.05;;;3.75;;
54171;SDS011;40076;52.354;4.970;2022-11-27T03:36:09;12.13;;;4.00;;
54171;SDS011;40076;52.354;4.970;2022-11-27T03:38:36;9.27;;;4.00;;
54171;SDS011;40076;52.354;4.970;2022-11-27T03:41:03;11.48;;;3.72;;
54171;SDS011;40076;52.354;4.970;2022-11-27T03:43:38;14.02;;;4.05;;
54171;SDS011;40076;52.354;4.970;2022-11-27T03:46:14;10.25;;;3.67;;
54171;SDS011;40076;52.354;4.970;2022-11-27T03:48:55;13.35;;;3.90;;
54171;SDS011;40076;52.354;4.970;2022-11-27T03:51:35;11.20;;;3.70;;
54171;SDS011;40076;52.354;4.970;2022-11-27T03:54:25;12.02;;;4.05;;
54171;SDS011;40076;52.354;4.970;2022-11-27T03:57:06;11.75;;;4.30;;
54171;SDS011;40076;52.354;4.970;2022-11-27T03:59:41;11.88;;;3.70;;
54171;SDS011;40076;52.354;4.970;2022-11-27T04:02:13;12.73;;;3.13;;
54171;SDS011;40076;52.354;4.970;2022-11-27T04:04:39;14.88;;;3.58;;
54171;SDS011;40076;52.354;4.970;2022-11-27T04:07:05;12.30;;;3.58;;
54171;SDS011;40076;52.354;4.970;2022-11-27T04:09:30;11.95;;;3.22;;
54171;SDS011;40076;52.354;4.970;2022-11-27T04:11:55;15.30;;;3.80;;
54171;SDS011;40076;52.354;4.970;2022-11-27T04:14:20;16.77;;;3.92;;
54171;SDS011;40076;52.354;4.970;2022-11-27T04:16:46;13.38;;;3.33;;
54171;SDS011;40076;52.354;4.970;2022-11-27T04:19:11;10.80;;;3.75;;
54171;SDS011;40076;52.354;4.970;2022-11-27T04:21:36;13.13;;;3.45;;
54171;SDS011;40076;52.354;4.970;2022-11-27T04:24:01;9.85;;;3.38;;
54171;SDS011;40076;52.354;4.970;2022-11-27T04:26:27;9.32;;;3.00;;
54171;SDS011;40076;52.354;4.970;2022-11-27T04:28:52;10.13;;;3.17;;
54171;SDS011;40076;52.354;4.970;2022-11-27T04:31:17;10.63;;;3.20;;
54171;SDS011;40076;52.354;4.970;2022-11-27T04:33:43;10.35;;;3.38;;
54171;SDS011;40076;52.354;4.970;2022-11-27T04:36:08;13.85;;;4.45;;
54171;SDS011;40076;52.354;4.970;2022-11-27T04:38:33;13.65;;;4.07;;
54171;SDS011;40076;52.354;4.970;2022-11-27T04:40:59;10.65;;;3.60;;
54171;SDS011;40076;52.354;4.970;2022-11-27T04:43:24;10.50;;;3.80;;
54171;SDS011;40076;52.354;4.970;2022-11-27T04:45:50;13.55;;;3.58;;
54171;SDS011;40076;52.354;4.970;2022-11-27T04:48:15;9.75;;;3.15;;
54171;SDS011;40076;52.354;4.970;2022-11-27T04:50:41;15.57;;;3.30;;
54171;SDS011;40076;52.354;4.970;2022-11-27T04:53:06;8.95;;;3.53;;
54171;SDS011;40076;52.354;4.970;2022-11-27T04:55:31;10.30;;;3.13;;
54171;SDS011;40076;52.354;4.970;2022-11-27T04:57:56;12.73;;;3.72;;
54171;SDS011;40076;52.354;4.970;2022-11-27T05:00:22;12.15;;;3.78;;
54171;SDS011;40076;52.354;4.970;2022-11-27T05:02:47;9.38;;;3.20;;
54171;SDS011;40076;52.354;4.970;2022-11-27T05:05:12;8.52;;;3.05;;
54171;SDS011;40076;52.354;4.970;2022-11-27T05:07:38;11.32;;;3.17;;
54171;SDS011;40076;52.354;4.970;2022-11-27T05:10:04;9.32;;;3.42;;
54171;SDS011;40076;52.354;4.970;2022-11-27T05:12:30;14.55;;;3.63;;
54171;SDS011;40076;52.354;4.970;2022-11-27T05:14:55;10.20;;;3.10;;
54171;SDS011;40076;52.354;4.970;2022-11-27T05:17:20;9.20;;;3.40;;
54171;SDS011;40076;52.354;4.970;2022-11-27T05:19:45;11.25;;;4.07;;
54171;SDS011;40076;52.354;4.970;2022-11-27T05:22:11;11.27;;;3.55;;
54171;SDS011;40076;52.354;4.970;2022-11-27T05:24:36;10.32;;;3.45;;
54171;SDS011;40076;52.354;4.970;2022-11-27T05:27:01;11.35;;;4.03;;
54171;SDS011;40076;52.354;4.970;2022-11-27T05:29:28;6.75;;;3.13;;
54171;SDS011;40076;52.354;4.970;2022-11-27T05:31:53;11.77;;;3.78;;
54171;SDS011;40076;52.354;4.970;2022-11-27T05:34:19;9.55;;;4.00;;
54171;SDS011;40076;52.354;4.970;2022-11-27T05:36:44;10.65;;;3.70;;
54171;SDS011;40076;52.354;4.970;2022-11-27T05:39:10;8.23;;;3.65;;
54171;SDS011;40076;52.354;4.970;2022-11-27T05:41:36;10.85;;;3.90;;
54171;SDS011;40076;52.354;4.970;2022-11-27T05:44:04;13.45;;;4.30;;
54171;SDS011;40076;52.354;4.970;2022-11-27T05:46:30;10.20;;;3.97;;
54171;SDS011;40076;52.354;4.970;2022-11-27T05:48:56;11.07;;;3.88;;
54171;SDS011;40076;52.354;4.970;2022-11-27T05:51:21;8.07;;;3.78;;
54171;SDS011;40076;52.354;4.970;2022-11-27T05:53:46;11.43;;;4.20;;
54171;SDS011;40076;52.354;4.970;2022-11-27T05:56:13;8.85;;;4.10;;
54171;SDS011;40076;52.354;4.970;2022-11-27T05:58:40;12.85;;;4.28;;
54171;SDS011;40076;52.354;4.970;2022-11-27T06:01:07;12.68;;;4.05;;
54171;SDS011;40076;52.354;4.970;2022-11-27T06:03:33;13.02;;;4.07;;
54171;SDS011;40076;52.354;4.970;2022-11-27T06:06:04;9.43;;;3.85;;
54171;SDS011;40076;52.354;4.970;2022-11-27T06:08:30;11.68;;;3.85;;
54171;SDS011;40076;52.354;4.970;2022-11-27T06:10:55;10.88;;;3.95;;
54171;SDS011;40076;52.354;4.970;2022-11-27T06:13:20;12.52;;;3.95;;
54171;SDS011;40076;52.354;4.970;2022-11-27T06:15:46;9.38;;;4.20;;
54171;SDS011;40076;52.354;4.970;2022-11-27T06:18:11;12.55;;;4.03;;
54171;SDS011;40076;52.354;4.970;2022-11-27T06:20:37;10.85;;;3.92;;
54171;SDS011;40076;52.354;4.970;2022-11-27T06:23:02;11.50;;;3.63;;
54171;SDS011;40076;52.354;4.970;2022-11-27T06:25:27;9.60;;;4.30;;
54171;SDS011;40076;52.354;4.970;2022-11-27T06:27:53;11.50;;;3.67;;
54171;SDS011;40076;52.354;4.970;2022-11-27T06:30:18;11.77;;;3.83;;
54171;SDS011;40076;52.354;4.970;2022-11-27T06:32:43;15.10;;;4.57;;
54171;SDS011;40076;52.354;4.970;2022-11-27T06:35:09;9.43;;;4.10;;
54171;SDS011;40076;52.354;4.970;2022-11-27T06:37:34;11.40;;;4.82;;
54171;SDS011;40076;52.354;4.970;2022-11-27T06:39:59;11.65;;;4.28;;
54171;SDS011;40076;52.354;4.970;2022-11-27T06:42:27;11.27;;;4.13;;
54171;SDS011;40076;52.354;4.970;2022-11-27T06:44:53;9.23;;;3.92;;
54171;SDS011;40076;52.354;4.970;2022-11-27T06:47:18;10.85;;;4.03;;
54171;SDS011;40076;52.354;4.970;2022-11-27T06:49:44;8.75;;;3.85;;
54171;SDS011;40076;52.354;4.970;2022-11-27T06:52:09;9.88;;;3.97;;
54171;SDS011;40076;52.354;4.970;2022-11-27T06:54:34;9.88;;;3.90;;
54171;SDS011;40076;52.354;4.970;2022-11-27T06:57:00;10.23;;;4.03;;
54171;SDS011;40076;52.354;4.970;2022-11-27T06:59:25;10.48;;;4.20;;
54171;SDS011;40076;52.354;4.970;2022-11-27T07:01:51;9.43;;;3.55;;
54171;SDS011;40076;52.354;4.970;2022-11-27T07:04:16;11.13;;;3.92;;
54171;SDS011;40076;52.354;4.970;2022-11-27T07:06:42;10.65;;;4.05;;
54171;SDS011;40076;52.354;4.970;2022-11-27T07:09:07;8.25;;;3.67;;
54171;SDS011;40076;52.354;4.970;2022-11-27T07:11:34;8.10;;;3.80;;
54171;SDS011;40076;52.354;4.970;2022-11-27T07:14:00;8.27;;;4.18;;
54171;SDS011;40076;52.354;4.970;2022-11-27T07:16:26;9.63;;;3.78;;
54171;SDS011;40076;52.354;4.970;2022-11-27T07:18:54;10.55;;;4.10;;
54171;SDS011;40076;52.354;4.970;2022-11-27T07:21:21;7.45;;;3.03;;
54171;SDS011;40076;52.354;4.970;2022-11-27T07:23:48;8.90;;;3.30;;
54171;SDS011;40076;52.354;4.970;2022-11-27T07:26:17;10.45;;;3.88;;
54171;SDS011;40076;52.354;4.970;2022-11-27T07:28:46;11.25;;;3.97;;
54171;SDS011;40076;52.354;4.970;2022-11-27T07:31:12;9.13;;;3.70;;
54171;SDS011;40076;52.354;4.970;2022-11-27T07:33:39;9.07;;;3.58;;
54171;SDS011;40076;52.354;4.970;2022-11-27T07:36:06;8.77;;;3.63;;
54171;SDS011;40076;52.354;4.970;2022-11-27T07:38:36;11.88;;;3.55;;
54171;SDS011;40076;52.354;4.970;2022-11-27T07:41:01;14.13;;;3.63;;
54171;SDS011;40076;52.354;4.970;2022-11-27T07:43:28;10.65;;;4.55;;
54171;SDS011;40076;52.354;4.970;2022-11-27T07:45:54;12.82;;;4.07;;
54171;SDS011;40076;52.354;4.970;2022-11-27T07:48:20;10.27;;;4.50;;
54171;SDS011;40076;52.354;4.970;2022-11-27T07:50:45;12.48;;;3.75;;
54171;SDS011;40076;52.354;4.970;2022-11-27T07:53:10;12.80;;;5.10;;
54171;SDS011;40076;52.354;4.970;2022-11-27T07:55:36;10.75;;;3.80;;
54171;SDS011;40076;52.354;4.970;2022-11-27T07:58:03;11.43;;;3.95;;
54171;SDS011;40076;52.354;4.970;2022-11-27T08:00:28;9.52;;;3.42;;
54171;SDS011;40076;52.354;4.970;2022-11-27T08:02:53;15.00;;;3.58;;
54171;SDS011;40076;52.354;4.970;2022-11-27T08:05:19;10.35;;;4.35;;
54171;SDS011;40076;52.354;4.970;2022-11-27T08:07:44;9.57;;;3.42;;
54171;SDS011;40076;52.354;4.970;2022-11-27T08:10:09;10.82;;;3.80;;
54171;SDS011;40076;52.354;4.970;2022-11-27T08:12:34;11.55;;;3.75;;
54171;SDS011;40076;52.354;4.970;2022-11-27T08:15:00;9.85;;;4.00;;
54171;SDS011;40076;52.354;4.970;2022-11-27T08:17:27;12.30;;;4.40;;
54171;SDS011;40076;52.354;4.970;2022-11-27T08:19:52;13.00;;;3.88;;
54171;SDS011;40076;52.354;4.970;2022-11-27T08:22:17;13.10;;;3.55;;
54171;SDS011;40076;52.354;4.970;2022-11-27T08:24:44;10.82;;;3.90;;
54171;SDS011;40076;52.354;4.970;2022-11-27T08:27:11;9.57;;;3.70;;
54171;SDS011;40076;52.354;4.970;2022-11-27T08:29:37;10.20;;;3.63;;
54171;SDS011;40076;52.354;4.970;2022-11-27T08:32:03;10.45;;;3.58;;
54171;SDS011;40076;52.354;4.970;2022-11-27T08:34:29;7.15;;;3.15;;
54171;SDS011;40076;52.354;4.970;2022-11-27T08:36:54;10.70;;;3.47;;
54171;SDS011;40076;52.354;4.970;2022-11-27T08:39:19;10.07;;;3.60;;
54171;SDS011;40076;52.354;4.970;2022-11-27T08:41:44;12.32;;;4.78;;
54171;SDS011;40076;52.354;4.970;2022-11-27T08:44:10;10.50;;;3.60;;
54171;SDS011;40076;52.354;4.970;2022-11-27T08:46:35;12.80;;;3.90;;
54171;SDS011;40076;52.354;4.970;2022-11-27T08:49:01;8.27;;;3.20;;
54171;SDS011;40076;52.354;4.970;2022-11-27T08:51:26;13.02;;;4.40;;
54171;SDS011;40076;52.354;4.970;2022-11-27T08:53:52;12.82;;;4.18;;
54171;SDS011;40076;52.354;4.970;2022-11-27T08:56:19;12.43;;;4.13;;
54171;SDS011;40076;52.354;4.970;2022-11-27T08:58:46;11.68;;;3.75;;
54171;SDS011;40076;52.354;4.970;2022-11-27T09:01:14;9.82;;;4.10;;
54171;SDS011;40076;52.354;4.970;2022-11-27T09:03:44;10.70;;;4.03;;
54171;SDS011;40076;52.354;4.970;2022-11-27T09:06:11;13.40;;;3.72;;
54171;SDS011;40076;52.354;4.970;2022-11-27T09:08:42;10.68;;;4.75;;
54171;SDS011;40076;52.354;4.970;2022-11-27T09:11:09;12.98;;;4.78;;
54171;SDS011;40076;52.354;4.970;2022-11-27T09:13:36;12.35;;;3.83;;
54171;SDS011;40076;52.354;4.970;2022-11-27T09:16:03;12.15;;;3.78;;
54171;SDS011;40076;52.354;4.970;2022-11-27T09:18:28;12.27;;;4.40;;
54171;SDS011;40076;52.354;4.970;2022-11-27T09:20:57;13.65;;;4.60;;
54171;SDS011;40076;52.354;4.970;2022-11-27T09:23:24;12.45;;;4.20;;
54171;SDS011;40076;52.354;4.970;2022-11-27T09:25:49;12.10;;;5.10;;
54171;SDS011;40076;52.354;4.970;2022-11-27T09:28:15;13.32;;;4.85;;
54171;SDS011;40076;52.354;4.970;2022-11-27T09:30:40;13.93;;;4.82;;
54171;SDS011;40076;52.354;4.970;2022-11-27T09:33:05;12.02;;;5.55;;
54171;SDS011;40076;52.354;4.970;2022-11-27T09:35:31;11.85;;;4.65;;
54171;SDS011;40076;52.354;4.970;2022-11-27T09:37:56;12.02;;;5.30;;
54171;SDS011;40076;52.354;4.970;2022-11-27T09:40:21;13.25;;;4.45;;
54171;SDS011;40076;52.354;4.970;2022-11-27T09:42:54;13.43;;;4.70;;
54171;SDS011;40076;52.354;4.970;2022-11-27T09:45:23;16.05;;;5.32;;
54171;SDS011;40076;52.354;4.970;2022-11-27T09:47:55;12.52;;;5.30;;
54171;SDS011;40076;52.354;4.970;2022-11-27T09:50:28;12.50;;;5.15;;
54171;SDS011;40076;52.354;4.970;2022-11-27T09:53:00;12.38;;;5.40;;
54171;SDS011;40076;52.354;4.970;2022-11-27T09:55:32;15.60;;;5.72;;
54171;SDS011;40076;52.354;4.970;2022-11-27T09:58:05;13.18;;;5.93;;
54171;SDS011;40076;52.354;4.970;2022-11-27T10:00:46;16.20;;;6.13;;
54171;SDS011;40076;52.354;4.970;2022-11-27T10:03:13;14.48;;;5.75;;
54171;SDS011;40076;52.354;4.970;2022-11-27T10:11:39;11.85;;;5.50;;
54171;SDS011;40076;52.354;4.970;2022-11-27T10:16:59;10.57;;;5.38;;
54171;SDS011;40076;52.354;4.970;2022-11-27T10:22:17;13.20;;;5.93;;
54171;SDS011;40076;52.354;4.970;2022-11-27T10:30:22;13.82;;;5.68;;
54171;SDS011;40076;52.354;4.970;2022-11-27T10:32:48;11.25;;;5.47;;
54171;SDS011;40076;52.354;4.970;2022-11-27T10:35:18;11.45;;;5.68;;
54171;SDS011;40076;52.354;4.970;2022-11-27T10:37:47;14.55;;;6.22;;
54171;SDS011;40076;52.354;4.970;2022-11-27T10:40:21;13.13;;;5.70;;
54171;SDS011;40076;52.354;4.970;2022-11-27T10:43:02;14.82;;;5.60;;
54171;SDS011;40076;52.354;4.970;2022-11-27T10:45:41;9.30;;;5.65;;
54171;SDS011;40076;52.354;4.970;2022-11-27T10:48:11;11.60;;;5.60;;
54171;SDS011;40076;52.354;4.970;2022-11-27T10:50:38;15.55;;;6.10;;
54171;SDS011;40076;52.354;4.970;2022-11-27T10:53:06;17.27;;;7.28;;
54171;SDS011;40076;52.354;4.970;2022-11-27T10:55:44;15.23;;;6.40;;
54171;SDS011;40076;52.354;4.970;2022-11-27T10:58:26;12.57;;;5.93;;
54171;SDS011;40076;52.354;4.970;2022-11-27T11:01:06;17.02;;;6.63;;
54171;SDS011;40076;52.354;4.970;2022-11-27T11:03:33;13.10;;;5.97;;
54171;SDS011;40076;52.354;4.970;2022-11-27T11:06:00;13.10;;;6.28;;
54171;SDS011;40076;52.354;4.970;2022-11-27T11:08:29;14.40;;;5.47;;
54171;SDS011;40076;52.354;4.970;2022-11-27T11:10:58;11.45;;;5.63;;
54171;SDS011;40076;52.354;4.970;2022-11-27T11:13:30;14.57;;;6.30;;
54171;SDS011;40076;52.354;4.970;2022-11-27T11:24:11;11.80;;;6.03;;
54171;SDS011;40076;52.354;4.970;2022-11-27T11:26:47;9.95;;;5.97;;
54171;SDS011;40076;52.354;4.970;2022-11-27T11:29:34;14.27;;;5.85;;
54171;SDS011;40076;52.354;4.970;2022-11-27T11:32:24;12.60;;;6.22;;
54171;SDS011;40076;52.354;4.970;2022-11-27T11:34:55;11.02;;;5.90;;
54171;SDS011;40076;52.354;4.970;2022-11-27T11:40:01;17.73;;;6.35;;
54171;SDS011;40076;52.354;4.970;2022-11-27T11:42:56;12.45;;;6.63;;
54171;SDS011;40076;52.354;4.970;2022-11-27T11:45:24;10.00;;;6.00;;
54171;SDS011;40076;52.354;4.970;2022-11-27T11:47:53;12.13;;;6.65;;
54171;SDS011;40076;52.354;4.970;2022-11-27T11:53:15;13.93;;;5.72;;
54171;SDS011;40076;52.354;4.970;2022-11-27T11:58:33;13.40;;;6.07;;
54171;SDS011;40076;52.354;4.970;2022-11-27T12:04:48;14.52;;;6.00;;
54171;SDS011;40076;52.354;4.970;2022-11-27T12:07:42;12.18;;;5.43;;
54171;SDS011;40076;52.354;4.970;2022-11-27T12:10:30;11.85;;;6.07;;
54171;SDS011;40076;52.354;4.970;2022-11-27T12:13:16;15.40;;;6.28;;
54171;SDS011;40076;52.354;4.970;2022-11-27T12:18:24;13.33;;;6.53;;
54171;SDS011;40076;52.354;4.970;2022-11-27T12:23:53;14.40;;;6.85;;
54171;SDS011;40076;52.354;4.970;2022-11-27T12:26:27;19.38;;;7.63;;
54171;SDS011;40076;52.354;4.970;2022-11-27T12:29:02;13.70;;;6.38;;
54171;SDS011;40076;52.354;4.970;2022-11-27T12:40:34;16.50;;;7.28;;
54171;SDS011;40076;52.354;4.970;2022-11-27T12:43:23;18.73;;;8.52;;
54171;SDS011;40076;52.354;4.970;2022-11-27T12:45:52;13.82;;;7.35;;
54171;SDS011;40076;52.354;4.970;2022-11-27T12:48:40;17.52;;;7.88;;
54171;SDS011;40076;52.354;4.970;2022-11-27T12:51:11;15.30;;;7.55;;
54171;SDS011;40076;52.354;4.970;2022-11-27T12:56:17;16.67;;;7.97;;
54171;SDS011;40076;52.354;4.970;2022-11-27T12:58:53;17.42;;;7.00;;
54171;SDS011;40076;52.354;4.970;2022-11-27T13:01:25;16.85;;;7.75;;
54171;SDS011;40076;52.354;4.970;2022-11-27T13:12:30;16.27;;;7.72;;
54171;SDS011;40076;52.354;4.970;2022-11-27T13:15:02;17.63;;;7.50;;
54171;SDS011;40076;52.354;4.970;2022-11-27T13:17:34;16.08;;;7.88;;
54171;SDS011;40076;52.354;4.970;2022-11-27T13:20:03;11.80;;;6.78;;
54171;SDS011;40076;52.354;4.970;2022-11-27T13:22:31;16.17;;;7.07;;
54171;SDS011;40076;52.354;4.970;2022-11-27T13:25:00;16.45;;;7.07;;
54171;SDS011;40076;52.354;4.970;2022-11-27T13:27:26;17.30;;;7.30;;
54171;SDS011;40076;52.354;4.970;2022-11-27T13:32:34;15.48;;;6.07;;
54171;SDS011;40076;52.354;4.970;2022-11-27T13:35:05;12.07;;;6.53;;
54171;SDS011;40076;52.354;4.970;2022-11-27T13:37:42;12.10;;;5.95;;
54171;SDS011;40076;52.354;4.970;2022-11-27T13:42:49;10.15;;;5.40;;
54171;SDS011;40076;52.354;4.970;2022-11-27T13:45:29;10.27;;;5.93;;
54171;SDS011;40076;52.354;4.970;2022-11-27T13:47:58;11.18;;;6.03;;
54171;SDS011;40076;52.354;4.970;2022-11-27T13:50:25;14.40;;;5.88;;
54171;SDS011;40076;52.354;4.970;2022-11-27T13:53:01;10.48;;;5.40;;
54171;SDS011;40076;52.354;4.970;2022-11-27T13:55:37;13.20;;;6.57;;
54171;SDS011;40076;52.354;4.970;2022-11-27T13:58:04;13.10;;;5.78;;
54171;SDS011;40076;52.354;4.970;2022-11-27T14:00:41;13.80;;;5.70;;
54171;SDS011;40076;52.354;4.970;2022-11-27T14:03:19;10.48;;;6.10;;
54171;SDS011;40076;52.354;4.970;2022-11-27T14:05:47;12.95;;;5.65;;
54171;SDS011;40076;52.354;4.970;2022-11-27T14:10:50;12.25;;;5.93;;
54171;SDS011;40076;52.354;4.970;2022-11-27T14:13:19;11.35;;;5.60;;
54171;SDS011;40076;52.354;4.970;2022-11-27T14:15:55;12.90;;;5.43;;
54171;SDS011;40076;52.354;4.970;2022-11-27T14:18:25;12.90;;;6.13;;
54171;SDS011;40076;52.354;4.970;2022-11-27T14:20:53;10.00;;;5.43;;
54171;SDS011;40076;52.354;4.970;2022-11-27T14:23:35;11.63;;;5.32;;
54171;SDS011;40076;52.354;4.970;2022-11-27T14:28:39;12.40;;;5.40;;
54171;SDS011;40076;52.354;4.970;2022-11-27T14:31:17;14.23;;;6.55;;
54171;SDS011;40076;52.354;4.970;2022-11-27T14:33:47;13.02;;;6.40;;
54171;SDS011;40076;52.354;4.970;2022-11-27T14:36:31;12.85;;;5.95;;
54171;SDS011;40076;52.354;4.970;2022-11-27T14:39:01;13.20;;;6.75;;
54171;SDS011;40076;52.354;4.970;2022-11-27T14:41:27;14.27;;;6.50;;
54171;SDS011;40076;52.354;4.970;2022-11-27T14:43:59;15.80;;;6.45;;
54171;SDS011;40076;52.354;4.970;2022-11-27T14:46:25;12.35;;;6.32;;
54171;SDS011;40076;52.354;4.970;2022-11-27T14:48:52;11.23;;;5.75;;
54171;SDS011;40076;52.354;4.970;2022-11-27T14:51:20;14.52;;;7.35;;
54171;SDS011;40076;52.354;4.970;2022-11-27T14:53:48;13.13;;;5.90;;
54171;SDS011;40076;52.354;4.970;2022-11-27T14:56:17;12.32;;;6.43;;
54171;SDS011;40076;52.354;4.970;2022-11-27T14:58:46;13.65;;;6.30;;
54171;SDS011;40076;52.354;4.970;2022-11-27T15:01:21;11.55;;;6.00;;
54171;SDS011;40076;52.354;4.970;2022-11-27T15:03:56;12.00;;;5.95;;
54171;SDS011;40076;52.354;4.970;2022-11-27T15:06:47;11.80;;;6.50;;
54171;SDS011;40076;52.354;4.970;2022-11-27T15:09:16;11.88;;;6.30;;
54171;SDS011;40076;52.354;4.970;2022-11-27T15:11:43;13.95;;;6.22;;
54171;SDS011;40076;52.354;4.970;2022-11-27T15:14:12;14.93;;;6.45;;
54171;SDS011;40076;52.354;4.970;2022-11-27T15:16:42;9.25;;;6.07;;
54171;SDS011;40076;52.354;4.970;2022-11-27T15:19:14;12.05;;;6.25;;
54171;SDS011;40076;52.354;4.970;2022-11-27T15:21:46;13.20;;;6.43;;
54171;SDS011;40076;52.354;4.970;2022-11-27T15:24:27;15.45;;;7.32;;
54171;SDS011;40076;52.354;4.970;2022-11-27T15:26:53;12.25;;;6.13;;
54171;SDS011;40076;52.354;4.970;2022-11-27T15:29:29;10.93;;;6.25;;
54171;SDS011;40076;52.354;4.970;2022-11-27T15:32:01;10.10;;;4.63;;
54171;SDS011;40076;52.354;4.970;2022-11-27T15:34:29;13.30;;;6.65;;
54171;SDS011;40076;52.354;4.970;2022-11-27T15:36:58;16.58;;;7.30;;
54171;SDS011;40076;52.354;4.970;2022-11-27T15:39:49;10.63;;;6.30;;
54171;SDS011;40076;52.354;4.970;2022-11-27T15:42:16;11.73;;;6.65;;
54171;SDS011;40076;52.354;4.970;2022-11-27T15:44:44;11.27;;;6.53;;
54171;SDS011;40076;52.354;4.970;2022-11-27T15:47:20;11.63;;;6.57;;
54171;SDS011;40076;52.354;4.970;2022-11-27T15:49:48;12.77;;;7.05;;
54171;SDS011;40076;52.354;4.970;2022-11-27T15:52:13;14.13;;;7.15;;
54171;SDS011;40076;52.354;4.970;2022-11-27T15:54:39;13.10;;;6.97;;
54171;SDS011;40076;52.354;4.970;2022-11-27T15:57:04;13.20;;;7.07;;
54171;SDS011;40076;52.354;4.970;2022-11-27T15:59:29;14.93;;;7.32;;
54171;SDS011;40076;52.354;4.970;2022-11-27T16:01:54;12.55;;;6.60;;
54171;SDS011;40076;52.354;4.970;2022-11-27T16:04:21;13.18;;;7.13;;
54171;SDS011;40076;52.354;4.970;2022-11-27T16:06:47;13.57;;;7.22;;
54171;SDS011;40076;52.354;4.970;2022-11-27T16:09:12;12.80;;;7.20;;
54171;SDS011;40076;52.354;4.970;2022-11-27T16:11:37;11.63;;;6.78;;
54171;SDS011;40076;52.354;4.970;2022-11-27T16:14:03;14.02;;;8.18;;